Time;durP1;ratioP1;P1;durP2;ratioP2;P2;SDS_P1;SDS_P2;PMS_P1;PMS_P2;Temp;Humidity;BMP_temperature;BMP_pressure;BME280_temperature;BME280_humidity;BME280_pressure;Samples;Min_cycle;Max_cycle;Signal;HPM_P1;HPM_P2
2022/03/03 00:00:35;;;;;;;19.37;14.60;;;;;;;2.10;59.90;101838.47;5178585;28;20073;-76
2022/03/03 00:03:07;;;;;;;19.07;14.60;;;;;;;2.11;59.99;101839.34;5178990;28;20102;-77
2022/03/03 00:05:38;;;;;;;20.13;14.17;;;;;;;2.08;60.20;101837.56;5179474;28;20513;-75
2022/03/03 00:08:09;;;;;;;17.73;13.13;;;;;;;2.08;60.25;101834.97;5179841;28;20405;-76
2022/03/03 00:10:41;;;;;;;17.47;14.30;;;;;;;2.00;61.06;101837.25;5178987;28;20126;-74
2022/03/03 00:13:12;;;;;;;21.77;16.63;;;;;;;1.95;61.10;101830.19;5183049;28;20556;-76
2022/03/03 00:15:43;;;;;;;17.77;13.97;;;;;;;1.92;60.83;101832.63;5183543;28;20035;-76
2022/03/03 00:18:15;;;;;;;18.30;14.60;;;;;;;1.84;60.34;101831.47;5183848;28;20541;-77
2022/03/03 00:20:46;;;;;;;20.00;14.03;;;;;;;1.80;61.09;101825.28;5183299;28;20031;-76
2022/03/03 00:23:18;;;;;;;20.53;14.47;;;;;;;1.78;61.96;101820.09;5183403;28;20062;-74
2022/03/03 00:25:49;;;;;;;20.27;15.40;;;;;;;1.72;61.54;101819.84;5183177;28;20022;-77
2022/03/03 00:28:20;;;;;;;18.90;14.77;;;;;;;1.70;62.87;101816.34;5180930;28;20050;-76
2022/03/03 00:30:52;;;;;;;20.33;14.83;;;;;;;1.58;61.58;101821.00;5183106;28;20035;-76
2022/03/03 00:33:24;;;;;;;22.02;15.27;;;;;;;1.50;61.58;101828.41;5182857;28;20070;-77
2022/03/03 00:35:55;;;;;;;22.60;14.53;;;;;;;1.46;62.40;101829.06;5165080;28;20042;-76
2022/03/03 00:38:27;;;;;;;20.10;14.50;;;;;;;1.34;63.13;101826.00;5183135;28;20359;-77
2022/03/03 00:40:58;;;;;;;21.10;14.10;;;;;;;1.30;62.45;101824.13;5183044;28;20098;-77
2022/03/03 00:43:30;;;;;;;25.83;14.70;;;;;;;1.31;62.21;101825.88;5185151;28;20031;-76
2022/03/03 00:46:01;;;;;;;22.97;15.73;;;;;;;1.30;63.51;101821.53;5192240;28;20074;-74
2022/03/03 00:48:32;;;;;;;18.53;14.27;;;;;;;1.23;63.40;101820.41;5207758;28;20066;-74
2022/03/03 00:51:06;;;;;;;24.33;15.90;;;;;;;1.16;63.48;101818.38;5191375;28;20031;-76
2022/03/03 00:53:38;;;;;;;20.15;14.48;;;;;;;1.03;63.33;101815.31;5182524;28;20070;-77
2022/03/03 00:56:09;;;;;;;22.43;15.10;;;;;;;1.12;63.52;101816.53;5183698;28;20533;-76
2022/03/03 00:58:40;;;;;;;23.30;15.17;;;;;;;1.04;63.95;101819.63;5182433;28;20030;-76
2022/03/03 01:01:12;;;;;;;18.60;14.27;;;;;;;1.00;64.36;101812.63;5182451;28;20085;-75
2022/03/03 01:03:44;;;;;;;20.43;14.30;;;;;;;0.98;63.89;101808.22;5182108;28;20101;-77
2022/03/03 01:06:15;;;;;;;21.00;14.97;;;;;;;0.97;62.41;101817.63;5181794;28;20039;-75
2022/03/03 01:08:46;;;;;;;27.73;15.00;;;;;;;0.93;65.08;101813.16;5182411;28;20036;-76
2022/03/03 01:11:18;;;;;;;21.27;15.33;;;;;;;0.87;65.59;101810.31;5182414;28;20255;-76
2022/03/03 01:13:49;;;;;;;22.17;14.87;;;;;;;0.78;65.89;101815.94;5182348;28;20023;-76
2022/03/03 01:16:20;;;;;;;22.10;14.67;;;;;;;0.79;65.49;101807.44;5181707;28;20067;-76
2022/03/03 01:18:52;;;;;;;24.63;15.97;;;;;;;0.72;65.53;101803.72;5181632;28;20061;-75
2022/03/03 01:21:23;;;;;;;28.03;15.37;;;;;;;0.68;64.61;101806.97;5182171;28;20490;-75
2022/03/03 01:23:54;;;;;;;22.37;15.90;;;;;;;0.70;65.34;101801.91;5181088;28;20034;-76
2022/03/03 01:26:26;;;;;;;21.67;15.97;;;;;;;0.65;66.53;101809.38;5163905;28;20043;-75
2022/03/03 01:28:57;;;;;;;21.67;16.10;;;;;;;0.65;66.32;101801.69;5182090;28;20045;-77
2022/03/03 01:31:29;;;;;;;23.43;15.73;;;;;;;0.58;66.50;101802.25;5181739;28;20031;-76
2022/03/03 01:34:00;;;;;;;20.83;15.03;;;;;;;0.58;66.91;101801.34;5182215;28;20114;-75
2022/03/03 01:36:33;;;;;;;20.87;15.60;;;;;;;0.55;66.87;101802.09;5181355;28;20043;-74
2022/03/03 01:39:05;;;;;;;;;;;;;;;0.59;64.23;101796.28;5181869;28;20430;-74
2022/03/03 01:41:38;;;;;;;22.35;15.95;;;;;;;0.45;66.92;101788.00;5181717;28;19921;-76
2022/03/03 01:44:12;;;;;;;20.48;16.65;;;;;;;0.36;67.23;101788.44;5181754;28;20071;-75
2022/03/03 01:46:55;;;;;;;21.35;16.25;;;;;;;0.32;67.51;101790.78;5181313;28;20027;-75
2022/03/03 01:49:26;;;;;;;;;;;;;;;0.33;64.96;101778.03;5180848;28;20119;-75
2022/03/03 01:51:57;;;;;;;24.50;16.83;;;;;;;0.18;67.23;101775.66;5181231;28;19918;-75
2022/03/03 01:54:29;;;;;;;20.90;16.63;;;;;;;0.16;67.78;101774.72;5181408;28;20478;-77
2022/03/03 01:57:01;;;;;;;24.43;16.70;;;;;;;0.06;67.57;101776.78;5181125;28;20030;-74
2022/03/03 01:59:33;;;;;;;22.05;16.67;;;;;;;-0.18;67.58;101772.28;5181611;28;20139;-75
2022/03/03 02:02:06;;;;;;;20.95;16.50;;;;;;;-0.20;67.60;101773.91;5180926;28;20041;-76
2022/03/03 02:04:39;;;;;;;22.08;17.63;;;;;;;-0.13;68.96;101772.50;5181036;28;20019;-75
2022/03/03 02:07:10;;;;;;;22.92;16.30;;;;;;;-0.17;68.13;101763.78;5179514;28;20033;-75
2022/03/03 02:09:42;;;;;;;23.53;17.47;;;;;;;-0.17;69.13;101755.22;5181399;28;20019;-76
2022/03/03 02:12:13;;;;;;;21.67;15.87;;;;;;;-0.16;68.57;101757.88;5181311;28;20077;-77
2022/03/03 02:14:49;;;;;;;24.53;16.77;;;;;;;-0.19;69.64;101752.59;5181128;28;20026;-77
2022/03/03 02:17:20;;;;;;;25.70;18.08;;;;;;;-0.19;69.30;101758.59;5180230;28;20031;-75
2022/03/03 02:19:52;;;;;;;22.60;16.93;;;;;;;-0.21;69.22;101749.97;5180871;28;20031;-76
2022/03/03 02:22:23;;;;;;;24.47;16.97;;;;;;;-0.23;69.08;101749.00;5180839;28;20022;-77
2022/03/03 02:24:54;;;;;;;24.53;18.03;;;;;;;-0.21;69.77;101746.50;5181143;28;20046;-76
2022/03/03 02:27:27;;;;;;;24.53;18.67;;;;;;;-0.24;70.16;101739.56;5180811;28;20042;-77
2022/03/03 02:29:59;;;;;;;25.95;16.27;;;;;;;-0.28;70.15;101736.78;5180315;28;20031;-74
2022/03/03 02:32:30;;;;;;;22.73;17.65;;;;;;;-0.29;70.32;101742.72;5180375;28;20034;-74
2022/03/03 02:35:03;;;;;;;23.93;16.57;;;;;;;-0.36;70.50;101741.53;5180768;28;20031;-75
2022/03/03 02:37:36;;;;;;;20.98;17.10;;;;;;;-0.32;70.98;101734.88;5180848;28;20019;-76
2022/03/03 02:40:11;;;;;;;25.23;17.10;;;;;;;-0.43;70.55;101742.94;5180642;28;20113;-77
2022/03/03 02:42:42;;;;;;;27.77;16.75;;;;;;;-0.38;70.90;101741.47;5162287;28;20550;-77
2022/03/03 02:45:13;;;;;;;24.47;17.53;;;;;;;-0.34;71.21;101742.47;5180483;28;20031;-76
2022/03/03 02:47:46;;;;;;;25.30;16.70;;;;;;;-0.40;71.43;101744.78;5180202;28;20525;-77
2022/03/03 02:50:21;;;;;;;;;;;;;;;-0.41;69.07;101745.56;5180859;28;20394;-77
2022/03/03 02:52:52;;;;;;;27.80;17.95;;;;;;;-0.44;70.51;101740.31;5180508;28;20282;-75
2022/03/03 02:55:24;;;;;;;23.03;17.00;;;;;;;-0.45;70.81;101741.09;5181942;28;20074;-75
2022/03/03 02:57:56;;;;;;;25.80;18.63;;;;;;;-0.50;71.21;101735.78;5181864;28;20415;-77
2022/03/03 03:00:38;;;;;;;23.53;16.57;;;;;;;-0.54;71.49;101733.00;5181209;28;20038;-76
2022/03/03 03:03:12;;;;;;;27.75;18.23;;;;;;;-0.62;72.39;101727.50;5181065;28;20123;-76
2022/03/03 03:05:44;;;;;;;25.92;17.70;;;;;;;-0.58;72.40;101734.50;5163226;28;20486;-77
2022/03/03 03:08:16;;;;;;;23.55;17.08;;;;;;;-0.64;72.03;101731.69;5180536;28;20482;-77
2022/03/03 03:10:49;;;;;;;27.00;18.60;;;;;;;-0.63;71.84;101735.97;5179836;28;20045;-77
2022/03/03 03:13:20;;;;;;;29.48;18.00;;;;;;;-0.61;72.25;101732.69;5180147;28;20042;-76
2022/03/03 03:15:51;;;;;;;29.30;18.07;;;;;;;-0.69;71.73;101733.13;5179835;28;20031;-75
2022/03/03 03:18:23;;;;;;;24.37;18.43;;;;;;;-0.66;72.69;101731.63;5179551;28;20034;-77
2022/03/03 03:20:55;;;;;;;28.10;17.60;;;;;;;-0.79;71.85;101731.81;5180123;28;20526;-76
2022/03/03 03:23:27;;;;;;;24.63;17.90;;;;;;;-0.74;72.28;101732.94;5179915;28;20554;-76
2022/03/03 03:25:58;;;;;;;23.33;17.50;;;;;;;-0.82;72.25;101723.97;5179410;28;20386;-77
2022/03/03 03:28:30;;;;;;;24.80;17.90;;;;;;;-0.85;72.82;101721.25;5178601;28;20047;-77
2022/03/03 03:31:01;;;;;;;24.83;17.57;;;;;;;-0.90;72.54;101715.03;5162074;28;20033;-77
2022/03/03 03:33:32;;;;;;;24.93;17.40;;;;;;;-0.89;72.97;101725.34;5180100;28;20483;-75
2022/03/03 03:36:04;;;;;;;24.97;17.53;;;;;;;-0.92;73.08;101715.88;5180461;28;20019;-77
2022/03/03 03:38:35;;;;;;;23.10;17.17;;;;;;;-0.96;73.33;101707.97;5183849;28;20061;-77
2022/03/03 03:41:07;;;;;;;24.30;18.13;;;;;;;-0.97;73.55;101713.88;5197570;28;20015;-73
2022/03/03 03:43:39;;;;;;;22.73;16.90;;;;;;;-1.04;73.63;101706.72;5204012;28;20014;-77
2022/03/03 03:46:10;;;;;;;27.27;18.57;;;;;;;-1.02;74.11;101712.78;5181820;28;20038;-76
2022/03/03 03:48:44;;;;;;;26.73;17.30;;;;;;;-1.11;74.29;101713.19;5186868;28;20475;-76
2022/03/03 03:51:16;;;;;;;26.25;18.30;;;;;;;-1.16;73.89;101705.28;5186109;28;20046;-76
2022/03/03 03:53:47;;;;;;;24.20;18.33;;;;;;;-1.22;74.64;101707.53;5186431;28;20086;-76
2022/03/03 03:56:18;;;;;;;26.10;18.87;;;;;;;-1.13;74.73;101696.88;5186244;28;20480;-77
2022/03/03 03:58:50;;;;;;;25.47;17.83;;;;;;;-1.20;75.00;101693.13;5186254;28;20077;-76
2022/03/03 04:01:21;;;;;;;27.77;18.40;;;;;;;-1.21;74.86;101693.06;5185899;28;20122;-76
2022/03/03 04:03:53;;;;;;;26.53;18.13;;;;;;;-1.22;75.39;101702.44;5186229;28;20030;-77
2022/03/03 04:06:24;;;;;;;28.77;18.83;;;;;;;-1.27;75.04;101696.22;5186094;28;20077;-76
2022/03/03 04:08:56;;;;;;;28.47;18.70;;;;;;;-1.25;75.20;101704.84;5186300;28;20041;-77
2022/03/03 04:11:27;;;;;;;26.03;19.07;;;;;;;-1.30;75.08;101703.72;5186351;28;20027;-78
2022/03/03 04:13:59;;;;;;;28.07;19.20;;;;;;;-1.28;75.17;101704.66;5186131;28;20093;-76
2022/03/03 04:16:30;;;;;;;24.47;17.70;;;;;;;-1.29;75.33;101706.38;5186127;28;20023;-76
2022/03/03 04:19:02;;;;;;;26.33;19.27;;;;;;;-1.36;75.29;101703.41;5185878;28;20027;-76
2022/03/03 04:21:33;;;;;;;31.03;19.87;;;;;;;-1.34;76.26;101697.56;5185712;28;20274;-76
2022/03/03 04:24:06;;;;;;;29.57;18.37;;;;;;;-1.40;75.61;101688.69;5185845;28;20150;-77
2022/03/03 04:26:37;;;;;;;27.27;17.83;;;;;;;-1.47;76.03;101687.50;5185786;28;20038;-76
2022/03/03 04:29:08;;;;;;;32.27;18.97;;;;;;;-1.43;76.31;101681.78;5185883;28;20031;-76
2022/03/03 04:31:40;;;;;;;25.33;17.70;;;;;;;-1.54;75.96;101680.34;5185976;28;20023;-76
2022/03/03 04:34:11;;;;;;;25.23;17.57;;;;;;;-1.55;76.18;101682.00;5185926;28;20062;-77
2022/03/03 04:36:43;;;;;;;28.80;19.00;;;;;;;-1.52;76.83;101674.50;5185717;28;20031;-77
2022/03/03 04:39:14;;;;;;;31.93;18.83;;;;;;;-1.56;76.46;101679.38;5185756;28;20502;-75
2022/03/03 04:41:46;;;;;;;24.40;18.80;;;;;;;-1.55;76.41;101674.34;5185826;28;20494;-76
2022/03/03 04:44:18;;;;;;;23.20;18.03;;;;;;;-1.56;76.57;101661.47;5186071;28;20022;-76
2022/03/03 04:46:49;;;;;;;23.85;17.63;;;;;;;-1.58;76.47;101665.63;5185680;28;20027;-76
2022/03/03 04:49:21;;;;;;;25.43;17.90;;;;;;;-1.52;76.33;101669.38;5185844;28;20037;-77
2022/03/03 04:51:52;;;;;;;25.37;18.07;;;;;;;-1.62;76.44;101658.63;5185368;28;20044;-77
2022/03/03 04:54:23;;;;;;;26.20;18.97;;;;;;;-1.60;76.79;101654.47;5185849;28;20083;-77
2022/03/03 04:56:55;;;;;;;27.50;19.43;;;;;;;-1.61;77.03;101653.59;5185702;28;20078;-75
2022/03/03 04:59:26;;;;;;;25.50;18.13;;;;;;;-1.58;76.80;101652.84;5182488;28;20058;-77
2022/03/03 05:01:58;;;;;;;27.27;18.67;;;;;;;-1.62;77.16;101654.38;5182494;28;20027;-77
2022/03/03 05:04:29;;;;;;;31.30;19.63;;;;;;;-1.70;76.72;101665.91;5181661;28;20041;-78
2022/03/03 05:07:02;;;;;;;29.10;17.77;;;;;;;-1.65;76.74;101662.75;5182430;28;20494;-76
2022/03/03 05:09:33;;;;;;;28.90;18.10;;;;;;;-1.65;77.64;101662.75;5182639;28;20022;-76
2022/03/03 05:12:12;;;;;;;27.63;19.30;;;;;;;-1.71;77.10;101661.56;5182547;28;20034;-77
2022/03/03 05:14:43;;;;;;;26.95;19.25;;;;;;;-1.70;77.26;101658.22;5165859;28;20110;-78
2022/03/03 05:17:14;;;;;;;26.73;17.80;;;;;;;-1.70;76.98;101663.34;5182383;28;20171;-78
2022/03/03 05:19:46;;;;;;;47.90;31.87;;;;;;;-1.71;76.57;101671.81;5181992;28;20058;-75
2022/03/03 05:22:17;;;;;;;32.83;23.17;;;;;;;-1.73;76.45;101663.19;5181827;28;20482;-77
2022/03/03 05:24:50;;;;;;;29.97;21.17;;;;;;;-1.72;77.03;101665.81;5182084;28;20023;-77
2022/03/03 05:27:21;;;;;;;;;;;;;;;-1.78;75.77;101667.19;5182435;28;20066;-79
2022/03/03 05:29:54;;;;;;;25.13;18.83;;;;;;;-1.77;76.74;101662.16;5182433;28;19922;-78
2022/03/03 05:32:25;;;;;;;26.60;19.25;;;;;;;-1.82;76.61;101671.25;5182227;28;20376;-79
2022/03/03 05:34:58;;;;;;;24.93;18.50;;;;;;;-1.84;76.81;101662.63;5181874;28;20035;-78
2022/03/03 05:37:29;;;;;;;32.80;19.40;;;;;;;-1.82;77.06;101668.69;5190588;28;20058;-77
2022/03/03 05:40:02;;;;;;;29.60;18.33;;;;;;;-1.83;77.37;101675.47;5193383;28;20482;-76
2022/03/03 05:42:33;;;;;;;25.88;17.15;;;;;;;-1.89;77.73;101671.72;5191529;28;20034;-76
2022/03/03 05:45:06;;;;;;;29.87;18.43;;;;;;;-1.94;77.94;101681.72;5186807;28;20030;-77
2022/03/03 05:47:38;;;;;;;24.30;18.35;;;;;;;-1.94;77.92;101688.50;5183176;28;20027;-78
2022/03/03 05:50:09;;;;;;;31.88;18.75;;;;;;;-1.96;78.06;101677.34;5182499;28;20027;-76
2022/03/03 05:52:41;;;;;;;23.07;17.13;;;;;;;-2.06;78.65;101684.50;5181740;28;20023;-77
2022/03/03 05:55:12;;;;;;;26.73;18.07;;;;;;;-2.12;78.87;101673.97;5181212;28;20030;-76
2022/03/03 05:57:48;;;;;;;28.43;17.60;;;;;;;-2.14;79.25;101679.78;5181605;28;20027;-77
2022/03/03 06:00:21;;;;;;;25.02;18.00;;;;;;;-2.13;79.48;101674.75;5181404;28;20030;-76
2022/03/03 06:02:54;;;;;;;26.42;19.10;;;;;;;-2.13;80.13;101676.44;5181463;28;20023;-77
2022/03/03 06:05:27;;;;;;;26.30;18.00;;;;;;;-2.27;79.59;101674.03;5181458;28;20507;-75
2022/03/03 06:08:03;;;;;;;26.67;17.95;;;;;;;-2.22;79.98;101677.69;5181218;28;20451;-76
2022/03/03 06:10:41;;;;;;;24.15;18.63;;;;;;;-2.30;79.80;101668.75;5180173;28;20035;-75
2022/03/03 06:13:24;;;;;;;29.63;19.42;;;;;;;-2.30;79.83;101668.75;5181483;28;20112;-74
2022/03/03 06:15:56;;;;;;;;;;;;;;;-2.35;79.02;101670.19;5181350;28;20022;-76
2022/03/03 06:18:31;;;;;;;26.90;18.27;;;;;;;-2.37;79.93;101664.09;5180725;28;19937;-75
2022/03/03 06:21:03;;;;;;;27.35;18.35;;;;;;;-2.40;80.06;101667.38;5180721;28;20023;-74
2022/03/03 06:23:35;;;;;;;30.35;18.08;;;;;;;-2.41;80.96;101660.50;5180456;28;20466;-75
2022/03/03 06:26:08;;;;;;;25.23;18.47;;;;;;;-2.44;81.02;101660.34;5180290;28;20029;-77
2022/03/03 06:28:40;;;;;;;32.80;18.90;;;;;;;-2.41;81.25;101662.19;5180696;28;20042;-77
2022/03/03 06:31:12;;;;;;;25.13;18.33;;;;;;;-2.47;81.00;101667.81;5180507;28;20081;-76
2022/03/03 06:33:43;;;;;;;25.90;17.75;;;;;;;-2.42;81.50;101668.09;5190954;28;20023;-75
2022/03/03 06:36:15;;;;;;;25.77;17.90;;;;;;;-2.44;81.80;101675.66;5194351;28;20058;-76
2022/03/03 06:38:46;;;;;;;27.53;18.20;;;;;;;-2.50;81.17;101677.00;5180964;28;20034;-75
2022/03/03 06:41:18;;;;;;;27.47;18.23;;;;;;;-2.44;81.18;101672.22;5180855;28;20038;-75
2022/03/03 06:43:49;;;;;;;26.23;17.67;;;;;;;-2.41;81.28;101672.41;5162428;28;20137;-75
2022/03/03 06:46:21;;;;;;;28.23;17.40;;;;;;;-2.43;81.23;101668.88;5180158;28;20067;-76
2022/03/03 06:48:52;;;;;;;28.85;18.58;;;;;;;-2.40;81.46;101680.16;5180354;28;20034;-75
2022/03/03 06:51:27;;;;;;;27.10;19.50;;;;;;;-2.37;81.26;101681.97;5180125;28;20391;-75
2022/03/03 06:54:02;;;;;;;32.53;18.00;;;;;;;-2.39;80.78;101684.44;5180196;28;20031;-75
2022/03/03 06:56:35;;;;;;;27.33;18.63;;;;;;;-2.31;80.41;101686.53;5179272;28;20046;-75
2022/03/03 06:59:07;;;;;;;24.35;17.63;;;;;;;-2.25;80.62;101682.66;5179766;28;20503;-75
2022/03/03 07:01:40;;;;;;;24.50;18.33;;;;;;;-2.20;80.43;101690.56;5180147;28;20065;-77
2022/03/03 07:04:13;;;;;;;28.38;18.33;;;;;;;-2.15;80.31;101698.47;5178697;28;20035;-75
2022/03/03 07:06:46;;;;;;;28.13;18.20;;;;;;;-2.10;79.72;101686.81;5179949;28;20027;-75
2022/03/03 07:09:19;;;;;;;24.67;18.80;;;;;;;-2.02;79.77;101691.53;5180184;28;20027;-75
2022/03/03 07:11:50;;;;;;;25.77;18.33;;;;;;;-1.93;79.18;101701.38;5179850;28;20058;-77
2022/03/03 07:14:22;;;;;;;27.57;17.83;;;;;;;-1.85;79.07;101700.09;5179555;28;20129;-76
2022/03/03 07:16:59;;;;;;;31.07;18.13;;;;;;;-1.78;78.44;101703.84;5180078;28;20471;-77
2022/03/03 07:20:10;;;;;;;28.08;17.80;;;;;;;-1.70;77.86;101704.25;5179673;28;20058;-74
2022/03/03 07:23:14;;;;;;;27.08;17.95;;;;;;;-1.58;77.54;101698.88;5117418;29;20488;-75
2022/03/03 07:25:51;;;;;;;29.17;17.83;;;;;;;-1.48;77.29;101699.44;5097763;29;20123;-75
2022/03/03 07:28:24;;;;;;;26.23;17.90;;;;;;;-1.36;76.94;101700.84;5097479;29;20045;-75
2022/03/03 07:30:59;;;;;;;27.40;18.27;;;;;;;-1.25;76.85;101707.38;5098022;29;20051;-74
2022/03/03 07:33:43;;;;;;;27.17;17.73;;;;;;;-1.12;75.96;101707.19;5097856;29;20044;-75
2022/03/03 07:36:22;;;;;;;24.85;17.20;;;;;;;-0.99;75.74;101707.81;5097829;29;20120;-75
2022/03/03 07:39:12;;;;;;;25.73;16.80;;;;;;;-0.86;74.89;101701.59;5097663;29;20127;-74
2022/03/03 07:41:45;;;;;;;25.33;16.48;;;;;;;-0.65;74.50;101707.75;5097354;29;20043;-74
2022/03/03 07:44:16;;;;;;;;;;;;;;;-0.66;74.50;101711.13;5098247;29;20036;-74
2022/03/03 07:46:48;;;;;;;27.17;16.35;;;;;;;-0.36;73.32;101703.13;5097899;29;20064;-74
2022/03/03 07:49:21;;;;;;;29.87;17.93;;;;;;;-0.23;73.01;101704.56;5098152;29;20430;-74
2022/03/03 07:51:52;;;;;;;27.67;16.77;;;;;;;-0.04;71.83;101698.59;5097984;29;20116;-74
2022/03/03 07:54:26;;;;;;;26.50;17.40;;;;;;;0.09;71.44;101697.47;5115559;29;20551;-74
2022/03/03 07:57:00;;;;;;;29.98;15.70;;;;;;;0.29;70.37;101706.03;5117167;29;20036;-75
2022/03/03 07:59:34;;;;;;;24.58;16.75;;;;;;;0.50;69.47;101712.09;5117313;29;20491;-74
2022/03/03 08:02:06;;;;;;;23.88;15.95;;;;;;;0.62;68.58;101705.75;5132833;28;20043;-74
2022/03/03 08:04:40;;;;;;;26.58;16.75;;;;;;;0.74;68.11;101716.50;5179302;28;20046;-76
2022/03/03 08:07:14;;;;;;;24.73;17.02;;;;;;;0.95;67.99;101718.22;5179207;28;20082;-76
2022/03/03 08:09:47;;;;;;;27.73;18.17;;;;;;;1.12;66.85;101716.38;5179109;28;20082;-75
2022/03/03 08:12:20;;;;;;;24.23;16.40;;;;;;;1.23;66.24;101715.09;5180322;28;20113;-76
2022/03/03 08:14:52;;;;;;;25.73;15.85;;;;;;;1.38;65.12;101714.84;5181234;28;20486;-76
2022/03/03 08:17:25;;;;;;;23.35;15.90;;;;;;;1.58;65.17;101715.63;5182580;28;20068;-76
2022/03/03 08:19:57;;;;;;;24.77;15.93;;;;;;;1.71;64.70;101707.56;5181002;28;20066;-76
2022/03/03 08:22:28;;;;;;;24.47;15.70;;;;;;;1.90;63.31;101714.28;5179979;28;20055;-76
2022/03/03 08:25:00;;;;;;;25.87;15.73;;;;;;;2.02;62.80;101703.59;5179538;28;20277;-77
2022/03/03 08:27:32;;;;;;;30.17;17.40;;;;;;;2.19;62.19;101706.78;5178795;28;20069;-76
2022/03/03 08:30:06;;;;;;;28.92;15.63;;;;;;;2.42;61.27;101701.59;5179336;28;20031;-77
2022/03/03 08:32:43;;;;;;;24.90;15.88;;;;;;;2.66;60.12;101704.13;5180444;28;20038;-77
2022/03/03 08:35:22;;;;;;;29.17;16.73;;;;;;;3.11;60.26;101698.78;5182871;28;20031;-76
2022/03/03 08:38:01;;;;;;;28.63;14.50;;;;;;;3.34;58.26;101698.63;5182498;28;20015;-77
2022/03/03 08:40:34;;;;;;;22.42;14.80;;;;;;;3.60;56.55;101697.72;5182584;28;20027;-77
2022/03/03 08:43:06;;;;;;;22.05;14.98;;;;;;;3.87;56.41;101704.53;5182583;28;20033;-77
2022/03/03 08:45:39;;;;;;;21.13;13.80;;;;;;;4.20;57.03;101703.75;5182598;28;20101;-77
2022/03/03 08:48:11;;;;;;;21.10;14.32;;;;;;;4.50;54.81;101708.03;5182594;28;20045;-76
2022/03/03 08:50:43;;;;;;;25.90;14.43;;;;;;;4.66;53.42;101710.16;5182735;28;20026;-77
2022/03/03 08:53:14;;;;;;;21.60;13.37;;;;;;;4.97;52.62;101710.94;5182735;28;20026;-76
2022/03/03 08:55:46;;;;;;;19.33;13.17;;;;;;;5.13;51.57;101701.00;5182829;28;20439;-77
2022/03/03 08:58:17;;;;;;;19.40;13.50;;;;;;;5.40;51.45;101701.66;5182756;28;20027;-76
2022/03/03 09:00:50;;;;;;;20.70;13.57;;;;;;;5.74;50.52;101704.13;5182068;28;20038;-76
2022/03/03 09:03:22;;;;;;;19.92;14.00;;;;;;;6.10;50.26;101698.00;5182524;28;20065;-76
2022/03/03 09:05:57;;;;;;;20.95;12.75;;;;;;;6.35;47.17;101712.31;5182121;28;20019;-76
2022/03/03 09:08:28;;;;;;;21.40;11.88;;;;;;;6.49;46.58;101710.88;5182276;28;20046;-75
2022/03/03 09:10:59;;;;;;;16.47;12.07;;;;;;;6.82;46.17;101701.09;5182213;28;20375;-76
2022/03/03 09:13:32;;;;;;;20.63;13.90;;;;;;;7.12;46.65;101703.34;5181943;28;20034;-75
2022/03/03 09:16:04;;;;;;;18.40;13.52;;;;;;;7.35;44.68;101700.22;5181912;28;20050;-76
2022/03/03 09:18:35;;;;;;;18.73;13.73;;;;;;;7.63;45.69;101704.97;5182246;28;20526;-74
2022/03/03 09:21:07;;;;;;;19.47;12.57;;;;;;;8.10;44.64;101701.25;5182035;28;20478;-74
2022/03/03 09:23:38;;;;;;;18.97;12.30;;;;;;;8.29;42.89;101699.75;5181831;28;20352;-76
2022/03/03 09:26:10;;;;;;;16.80;12.43;;;;;;;8.53;41.46;101706.09;5181776;28;20088;-75
2022/03/03 09:28:42;;;;;;;17.88;12.70;;;;;;;8.66;42.29;101701.88;5192825;28;20129;-74
2022/03/03 09:31:13;;;;;;;16.47;12.80;;;;;;;8.92;39.96;101696.94;5194058;28;20034;-76
2022/03/03 09:33:45;;;;;;;20.93;12.77;;;;;;;9.05;40.52;101692.72;5182351;28;20110;-76
2022/03/03 09:36:18;;;;;;;18.97;12.87;;;;;;;9.16;39.16;101690.19;5182283;28;20052;-77
2022/03/03 09:38:49;;;;;;;20.60;13.13;;;;;;;9.07;38.58;101684.06;5181652;28;20031;-77
2022/03/03 09:41:20;;;;;;;19.93;13.03;;;;;;;9.36;37.94;101677.34;5181713;28;20022;-77
2022/03/03 09:43:52;;;;;;;18.70;13.03;;;;;;;9.48;38.27;101680.00;5180835;28;20102;-75
2022/03/03 09:46:24;;;;;;;22.10;13.67;;;;;;;9.63;37.42;101687.91;5164057;28;20082;-76
2022/03/03 09:48:55;;;;;;;18.27;12.65;;;;;;;9.71;37.51;101689.66;5181257;28;20027;-76
2022/03/03 09:51:27;;;;;;;16.87;12.53;;;;;;;10.22;37.10;101688.16;5181385;28;20031;-76
2022/03/03 09:53:58;;;;;;;18.67;13.23;;;;;;;10.62;36.44;101684.81;5181499;28;20082;-77
2022/03/03 09:56:30;;;;;;;17.13;13.17;;;;;;;10.97;36.55;101687.44;5181299;28;20086;-75
2022/03/03 09:59:01;;;;;;;18.17;12.80;;;;;;;11.20;34.48;101679.59;5181126;28;20022;-75
2022/03/03 10:01:33;;;;;;;15.40;12.10;;;;;;;11.14;34.20;101690.06;5180801;28;20140;-74
2022/03/03 10:04:24;;;;;;;20.30;12.30;;;;;;;11.79;35.88;101685.56;5181267;28;20475;-77
2022/03/03 10:06:55;;;;;;;16.85;11.50;;;;;;;12.01;32.55;101689.00;5181122;28;20027;-75
2022/03/03 10:09:26;;;;;;;15.13;10.93;;;;;;;11.94;31.80;101686.41;5181177;28;20041;-77
2022/03/03 10:12:06;;;;;;;17.07;12.47;;;;;;;12.27;33.01;101681.88;5180978;28;20023;-76
2022/03/03 10:14:38;;;;;;;19.15;12.77;;;;;;;12.51;32.34;101687.00;5178799;28;20046;-75
2022/03/03 10:17:10;;;;;;;19.73;13.02;;;;;;;12.96;32.86;101681.44;5180667;28;20031;-76
2022/03/03 10:19:54;;;;;;;17.13;12.87;;;;;;;13.21;32.46;101673.34;5180946;28;20090;-77
2022/03/03 10:22:42;;;;;;;14.02;11.93;;;;;;;13.60;30.86;101677.34;5180883;28;20026;-76
2022/03/03 10:25:25;;;;;;;16.15;11.48;;;;;;;13.55;30.33;101675.66;5180576;28;20077;-76
2022/03/03 10:28:08;;;;;;;16.10;12.45;;;;;;;14.04;30.44;101670.72;5180688;28;20039;-76
2022/03/03 10:30:53;;;;;;;15.85;12.18;;;;;;;14.41;28.59;101675.44;5180467;28;20035;-76
2022/03/03 10:33:29;;;;;;;15.55;12.20;;;;;;;14.00;28.49;101668.13;5180238;28;20106;-77
2022/03/03 10:36:08;;;;;;;13.77;11.15;;;;;;;14.69;27.55;101663.69;5180656;28;20509;-76
2022/03/03 10:38:57;;;;;;;16.58;10.82;;;;;;;15.01;27.36;101660.53;5180677;28;20062;-75
2022/03/03 10:41:38;;;;;;;14.52;10.65;;;;;;;15.00;27.24;101657.94;5180331;28;20027;-77
2022/03/03 10:44:12;;;;;;;15.02;10.60;;;;;;;15.16;25.87;101655.91;5180345;28;20029;-77
2022/03/03 10:47:04;;;;;;;18.00;11.57;;;;;;;15.38;27.33;101659.00;5180319;28;20030;-76
2022/03/03 10:49:38;;;;;;;14.63;10.73;;;;;;;15.77;25.76;101665.28;5180435;28;20409;-76
2022/03/03 10:52:11;;;;;;;13.82;10.82;;;;;;;15.80;24.07;101657.31;5180113;28;20026;-75
2022/03/03 10:55:10;;;;;;;13.85;10.48;;;;;;;16.11;24.60;101656.66;5180540;28;20377;-76
2022/03/03 10:57:48;;;;;;;15.73;10.30;;;;;;;16.28;23.63;101660.72;5180100;28;20106;-75
2022/03/03 11:00:25;;;;;;;10.88;9.32;;;;;;;16.67;22.87;101656.25;5179982;28;20085;-75
2022/03/03 11:02:59;;;;;;;13.70;10.73;;;;;;;16.68;24.08;101651.84;5179884;28;20109;-75
2022/03/03 11:05:30;;;;;;;14.52;9.88;;;;;;;16.72;22.76;101657.00;5180096;28;20368;-76
2022/03/03 11:08:02;;;;;;;11.63;9.73;;;;;;;16.68;22.64;101643.94;5179846;28;20027;-77
2022/03/03 11:10:33;;;;;;;14.13;9.60;;;;;;;17.15;22.00;101641.91;5180126;28;20031;-76
2022/03/03 11:13:05;;;;;;;12.00;10.00;;;;;;;17.71;22.31;101651.81;5179694;28;20030;-75
2022/03/03 11:15:36;;;;;;;11.33;9.37;;;;;;;17.85;21.98;101644.34;5179888;28;20026;-76
2022/03/03 11:18:08;;;;;;;14.03;10.87;;;;;;;18.02;21.72;101649.16;5180353;28;20603;-76
2022/03/03 11:20:39;;;;;;;17.98;11.02;;;;;;;18.62;20.90;101646.41;5179895;28;20106;-76
2022/03/03 11:23:11;;;;;;;13.50;10.17;;;;;;;18.02;21.14;101654.44;5179891;28;20042;-76
2022/03/03 11:25:47;;;;;;;13.63;10.97;;;;;;;18.81;21.82;101644.03;5179504;28;20041;-76
2022/03/03 11:28:19;;;;;;;13.48;10.65;;;;;;;19.35;21.05;101636.03;5179479;28;20054;-76
2022/03/03 11:30:53;;;;;;;16.25;11.80;;;;;;;19.92;19.81;101636.63;5179670;28;20169;-76
2022/03/03 11:33:30;;;;;;;15.40;11.32;;;;;;;19.80;20.10;101638.81;5179334;28;20065;-77
2022/03/03 11:36:09;;;;;;;14.43;10.73;;;;;;;20.31;20.26;101641.25;5179420;28;20390;-75
2022/03/03 11:38:50;;;;;;;15.27;10.43;;;;;;;20.20;20.41;101637.22;5179726;28;20382;-77
2022/03/03 11:41:46;;;;;;;14.90;10.85;;;;;;;21.16;20.72;101629.81;5179446;28;20368;-76